sensor_id;sensor_type;location;lat;lon;timestamp;temperature;humidity
23160;DHT22;11748;50.844;4.396;2022-10-16T00:01:25;15.70;99.90
23160;DHT22;11748;50.844;4.396;2022-10-16T00:03:51;15.70;99.90
23160;DHT22;11748;50.844;4.396;2022-10-16T00:06:18;15.70;99.90
23160;DHT22;11748;50.844;4.396;2022-10-16T00:08:45;15.70;99.90
23160;DHT22;11748;50.844;4.396;2022-10-16T00:11:22;15.70;99.90
23160;DHT22;11748;50.844;4.396;2022-10-16T00:13:51;15.70;99.90
23160;DHT22;11748;50.844;4.396;2022-10-16T00:16:18;15.70;99.90
23160;DHT22;11748;50.844;4.396;2022-10-16T00:18:43;15.70;99.90
23160;DHT22;11748;50.844;4.396;2022-10-16T00:21:18;15.70;99.90
23160;DHT22;11748;50.844;4.396;2022-10-16T00:23:45;15.70;99.90
23160;DHT22;11748;50.844;4.396;2022-10-16T00:26:13;15.70;99.90
23160;DHT22;11748;50.844;4.396;2022-10-16T00:28:39;15.70;99.90
23160;DHT22;11748;50.844;4.396;2022-10-16T00:31:07;15.70;99.90
23160;DHT22;11748;50.844;4.396;2022-10-16T00:33:35;15.70;99.90
23160;DHT22;11748;50.844;4.396;2022-10-16T00:36:03;15.70;99.90
23160;DHT22;11748;50.844;4.396;2022-10-16T00:38:29;15.60;99.90
23160;DHT22;11748;50.844;4.396;2022-10-16T00:40:55;15.60;99.90
23160;DHT22;11748;50.844;4.396;2022-10-16T00:43:43;15.60;99.90
23160;DHT22;11748;50.844;4.396;2022-10-16T00:51:25;15.50;99.90
23160;DHT22;11748;50.844;4.396;2022-10-16T00:53:51;15.60;99.90
23160;DHT22;11748;50.844;4.396;2022-10-16T00:56:18;15.60;99.90
23160;DHT22;11748;50.844;4.396;2022-10-16T00:58:44;15.50;99.90
23160;DHT22;11748;50.844;4.396;2022-10-16T01:01:09;15.50;99.90
23160;DHT22;11748;50.844;4.396;2022-10-16T01:03:36;15.60;99.90
23160;DHT22;11748;50.844;4.396;2022-10-16T01:11:27;15.40;99.90
23160;DHT22;11748;50.844;4.396;2022-10-16T01:13:57;15.40;99.90
23160;DHT22;11748;50.844;4.396;2022-10-16T01:19:08;15.30;99.90
23160;DHT22;11748;50.844;4.396;2022-10-16T01:21:43;15.30;99.90
23160;DHT22;11748;50.844;4.396;2022-10-16T01:35:02;15.20;99.90
23160;DHT22;11748;50.844;4.396;2022-10-16T01:37:35;15.30;99.90
23160;DHT22;11748;50.844;4.396;2022-10-16T01:40:06;15.30;99.90
23160;DHT22;11748;50.844;4.396;2022-10-16T01:42:45;15.30;99.90
23160;DHT22;11748;50.844;4.396;2022-10-16T01:45:14;15.40;99.90
23160;DHT22;11748;50.844;4.396;2022-10-16T01:47:44;15.30;99.90
23160;DHT22;11748;50.844;4.396;2022-10-16T01:50:12;15.30;99.90
23160;DHT22;11748;50.844;4.396;2022-10-16T01:52:43;15.20;99.90
23160;DHT22;11748;50.844;4.396;2022-10-16T01:55:12;15.20;99.90
23160;DHT22;11748;50.844;4.396;2022-10-16T01:57:42;15.20;99.90
23160;DHT22;11748;50.844;4.396;2022-10-16T02:00:12;15.20;99.90
23160;DHT22;11748;50.844;4.396;2022-10-16T02:02:42;15.20;99.90
23160;DHT22;11748;50.844;4.396;2022-10-16T02:05:26;15.20;99.90
23160;DHT22;11748;50.844;4.396;2022-10-16T02:07:52;15.30;99.90
23160;DHT22;11748;50.844;4.396;2022-10-16T02:10:18;15.40;99.90
23160;DHT22;11748;50.844;4.396;2022-10-16T02:13:13;15.30;99.90
23160;DHT22;11748;50.844;4.396;2022-10-16T02:15:40;15.30;99.90
23160;DHT22;11748;50.844;4.396;2022-10-16T02:18:07;15.20;99.90
23160;DHT22;11748;50.844;4.396;2022-10-16T02:26:19;15.30;99.90
23160;DHT22;11748;50.844;4.396;2022-10-16T02:28:55;15.30;99.90
23160;DHT22;11748;50.844;4.396;2022-10-16T02:31:25;15.20;99.90
23160;DHT22;11748;50.844;4.396;2022-10-16T02:33:54;15.10;99.90
23160;DHT22;11748;50.844;4.396;2022-10-16T02:36:22;15.10;99.90
23160;DHT22;11748;50.844;4.396;2022-10-16T02:38:47;15.00;99.90
23160;DHT22;11748;50.844;4.396;2022-10-16T02:41:14;15.10;99.90
23160;DHT22;11748;50.844;4.396;2022-10-16T02:43:40;15.10;99.90
23160;DHT22;11748;50.844;4.396;2022-10-16T02:46:05;15.10;99.90
23160;DHT22;11748;50.844;4.396;2022-10-16T02:48:31;15.20;99.90
23160;DHT22;11748;50.844;4.396;2022-10-16T02:50:57;15.20;99.90
23160;DHT22;11748;50.844;4.396;2022-10-16T02:53:23;15.10;99.90
23160;DHT22;11748;50.844;4.396;2022-10-16T02:55:48;15.00;99.90
23160;DHT22;11748;50.844;4.396;2022-10-16T02:58:14;15.10;99.90
23160;DHT22;11748;50.844;4.396;2022-10-16T03:00:40;15.10;99.90
23160;DHT22;11748;50.844;4.396;2022-10-16T03:03:05;15.20;99.90
23160;DHT22;11748;50.844;4.396;2022-10-16T03:05:31;15.20;99.90
23160;DHT22;11748;50.844;4.396;2022-10-16T03:07:57;15.20;99.90
23160;DHT22;11748;50.844;4.396;2022-10-16T03:10:25;15.20;99.90
23160;DHT22;11748;50.844;4.396;2022-10-16T03:12:51;15.20;99.90
23160;DHT22;11748;50.844;4.396;2022-10-16T03:15:17;15.30;99.90
23160;DHT22;11748;50.844;4.396;2022-10-16T03:17:42;15.30;99.90
23160;DHT22;11748;50.844;4.396;2022-10-16T03:20:09;15.30;99.90
23160;DHT22;11748;50.844;4.396;2022-10-16T03:22:34;15.20;99.90
23160;DHT22;11748;50.844;4.396;2022-10-16T03:25:00;15.20;99.90
23160;DHT22;11748;50.844;4.396;2022-10-16T03:27:26;15.20;99.90
23160;DHT22;11748;50.844;4.396;2022-10-16T03:29:52;15.20;99.90
23160;DHT22;11748;50.844;4.396;2022-10-16T03:32:17;15.20;99.90
23160;DHT22;11748;50.844;4.396;2022-10-16T03:34:43;15.20;99.90
23160;DHT22;11748;50.844;4.396;2022-10-16T03:37:09;15.20;99.90
23160;DHT22;11748;50.844;4.396;2022-10-16T03:39:35;15.40;99.90
23160;DHT22;11748;50.844;4.396;2022-10-16T03:42:00;15.30;99.90
23160;DHT22;11748;50.844;4.396;2022-10-16T03:44:26;15.30;99.90
23160;DHT22;11748;50.844;4.396;2022-10-16T03:46:52;15.30;99.90
23160;DHT22;11748;50.844;4.396;2022-10-16T03:49:17;15.30;99.90
23160;DHT22;11748;50.844;4.396;2022-10-16T03:51:43;15.30;99.90
23160;DHT22;11748;50.844;4.396;2022-10-16T03:54:10;15.30;99.90
23160;DHT22;11748;50.844;4.396;2022-10-16T03:56:36;15.30;99.90
23160;DHT22;11748;50.844;4.396;2022-10-16T03:59:01;15.20;99.90
23160;DHT22;11748;50.844;4.396;2022-10-16T04:01:27;15.20;99.90
23160;DHT22;11748;50.844;4.396;2022-10-16T04:03:53;15.20;99.90
23160;DHT22;11748;50.844;4.396;2022-10-16T04:06:18;15.20;99.90
23160;DHT22;11748;50.844;4.396;2022-10-16T04:08:44;15.30;99.90
23160;DHT22;11748;50.844;4.396;2022-10-16T04:11:10;15.20;99.90
23160;DHT22;11748;50.844;4.396;2022-10-16T04:13:36;15.20;99.90
23160;DHT22;11748;50.844;4.396;2022-10-16T04:16:01;15.20;99.90
23160;DHT22;11748;50.844;4.396;2022-10-16T04:18:27;15.20;99.90
23160;DHT22;11748;50.844;4.396;2022-10-16T04:20:53;15.20;99.90
23160;DHT22;11748;50.844;4.396;2022-10-16T04:23:19;15.20;99.90
23160;DHT22;11748;50.844;4.396;2022-10-16T04:25:45;15.20;99.90
23160;DHT22;11748;50.844;4.396;2022-10-16T04:28:11;15.20;99.90
23160;DHT22;11748;50.844;4.396;2022-10-16T04:30:38;15.20;99.90
23160;DHT22;11748;50.844;4.396;2022-10-16T04:33:04;15.10;99.90
23160;DHT22;11748;50.844;4.396;2022-10-16T04:35:31;15.20;99.90
23160;DHT22;11748;50.844;4.396;2022-10-16T04:37:59;15.20;99.90
23160;DHT22;11748;50.844;4.396;2022-10-16T04:40:26;15.10;99.90
23160;DHT22;11748;50.844;4.396;2022-10-16T04:42:53;15.10;99.90
23160;DHT22;11748;50.844;4.396;2022-10-16T04:45:18;15.10;99.90
23160;DHT22;11748;50.844;4.396;2022-10-16T04:47:44;15.10;99.90
23160;DHT22;11748;50.844;4.396;2022-10-16T04:50:10;14.90;99.90
23160;DHT22;11748;50.844;4.396;2022-10-16T04:52:36;14.90;99.90
23160;DHT22;11748;50.844;4.396;2022-10-16T04:55:02;14.90;99.90
23160;DHT22;11748;50.844;4.396;2022-10-16T04:57:29;14.90;99.90
23160;DHT22;11748;50.844;4.396;2022-10-16T04:59:55;15.00;99.90
23160;DHT22;11748;50.844;4.396;2022-10-16T05:02:20;15.00;99.90
23160;DHT22;11748;50.844;4.396;2022-10-16T05:04:46;15.00;99.90
23160;DHT22;11748;50.844;4.396;2022-10-16T05:07:12;14.90;99.90
23160;DHT22;11748;50.844;4.396;2022-10-16T05:09:37;14.90;99.90
23160;DHT22;11748;50.844;4.396;2022-10-16T05:12:03;14.90;99.90
23160;DHT22;11748;50.844;4.396;2022-10-16T05:14:29;14.90;99.90
23160;DHT22;11748;50.844;4.396;2022-10-16T05:16:55;14.80;99.90
23160;DHT22;11748;50.844;4.396;2022-10-16T05:19:20;14.80;99.90
23160;DHT22;11748;50.844;4.396;2022-10-16T05:21:46;14.80;99.90
23160;DHT22;11748;50.844;4.396;2022-10-16T05:24:12;14.80;99.90
23160;DHT22;11748;50.844;4.396;2022-10-16T05:26:38;14.90;99.90
23160;DHT22;11748;50.844;4.396;2022-10-16T05:29:03;14.90;99.90
23160;DHT22;11748;50.844;4.396;2022-10-16T05:31:29;14.90;99.90
23160;DHT22;11748;50.844;4.396;2022-10-16T05:33:59;14.90;99.90
23160;DHT22;11748;50.844;4.396;2022-10-16T05:36:25;14.90;99.90
23160;DHT22;11748;50.844;4.396;2022-10-16T05:38:51;14.80;99.90
23160;DHT22;11748;50.844;4.396;2022-10-16T05:41:17;14.90;99.90
23160;DHT22;11748;50.844;4.396;2022-10-16T05:43:47;14.80;99.90
23160;DHT22;11748;50.844;4.396;2022-10-16T05:46:15;14.80;99.90
23160;DHT22;11748;50.844;4.396;2022-10-16T05:48:40;14.80;99.90
23160;DHT22;11748;50.844;4.396;2022-10-16T05:51:09;14.80;99.90
23160;DHT22;11748;50.844;4.396;2022-10-16T05:53:36;14.70;99.90
23160;DHT22;11748;50.844;4.396;2022-10-16T05:56:03;14.70;99.90
23160;DHT22;11748;50.844;4.396;2022-10-16T05:58:31;14.70;99.90
23160;DHT22;11748;50.844;4.396;2022-10-16T06:01:02;14.70;99.90
23160;DHT22;11748;50.844;4.396;2022-10-16T06:03:28;14.70;99.90
23160;DHT22;11748;50.844;4.396;2022-10-16T06:05:54;14.70;99.90
23160;DHT22;11748;50.844;4.396;2022-10-16T06:08:21;14.70;99.90
23160;DHT22;11748;50.844;4.396;2022-10-16T06:10:49;14.70;99.90
23160;DHT22;11748;50.844;4.396;2022-10-16T06:13:15;14.60;99.90
23160;DHT22;11748;50.844;4.396;2022-10-16T06:15:41;14.60;99.90
23160;DHT22;11748;50.844;4.396;2022-10-16T06:18:10;14.40;99.90
23160;DHT22;11748;50.844;4.396;2022-10-16T06:20:37;14.30;99.90
23160;DHT22;11748;50.844;4.396;2022-10-16T06:23:03;14.30;99.90
23160;DHT22;11748;50.844;4.396;2022-10-16T06:25:30;14.40;99.90
23160;DHT22;11748;50.844;4.396;2022-10-16T06:28:02;14.50;99.90
23160;DHT22;11748;50.844;4.396;2022-10-16T06:30:28;14.70;99.90
23160;DHT22;11748;50.844;4.396;2022-10-16T06:32:54;14.70;99.90
23160;DHT22;11748;50.844;4.396;2022-10-16T06:35:19;14.80;99.90
23160;DHT22;11748;50.844;4.396;2022-10-16T06:37:45;14.70;99.90
23160;DHT22;11748;50.844;4.396;2022-10-16T06:40:11;14.80;99.90
23160;DHT22;11748;50.844;4.396;2022-10-16T06:42:36;14.80;99.90
23160;DHT22;11748;50.844;4.396;2022-10-16T06:45:02;14.80;99.90
23160;DHT22;11748;50.844;4.396;2022-10-16T06:47:28;14.90;99.90
23160;DHT22;11748;50.844;4.396;2022-10-16T06:49:54;14.90;99.90
23160;DHT22;11748;50.844;4.396;2022-10-16T06:52:19;14.90;99.90
23160;DHT22;11748;50.844;4.396;2022-10-16T06:54:45;14.90;99.90
23160;DHT22;11748;50.844;4.396;2022-10-16T06:57:11;14.90;99.90
23160;DHT22;11748;50.844;4.396;2022-10-16T06:59:36;14.70;99.90
23160;DHT22;11748;50.844;4.396;2022-10-16T07:02:02;14.90;99.90
23160;DHT22;11748;50.844;4.396;2022-10-16T07:04:28;14.80;99.90
23160;DHT22;11748;50.844;4.396;2022-10-16T07:06:53;14.90;99.90
23160;DHT22;11748;50.844;4.396;2022-10-16T07:09:19;15.00;99.90
23160;DHT22;11748;50.844;4.396;2022-10-16T07:11:45;14.90;99.90
23160;DHT22;11748;50.844;4.396;2022-10-16T07:14:16;14.90;99.90
23160;DHT22;11748;50.844;4.396;2022-10-16T07:16:43;14.90;99.90
23160;DHT22;11748;50.844;4.396;2022-10-16T07:19:08;15.00;99.90
23160;DHT22;11748;50.844;4.396;2022-10-16T07:21:34;15.00;99.90
23160;DHT22;11748;50.844;4.396;2022-10-16T07:24:05;14.80;99.90
23160;DHT22;11748;50.844;4.396;2022-10-16T07:26:35;14.90;99.90
23160;DHT22;11748;50.844;4.396;2022-10-16T07:29:01;14.80;99.90
23160;DHT22;11748;50.844;4.396;2022-10-16T07:31:27;14.80;99.90
23160;DHT22;11748;50.844;4.396;2022-10-16T07:33:57;14.80;99.90
23160;DHT22;11748;50.844;4.396;2022-10-16T07:36:24;14.70;99.90
23160;DHT22;11748;50.844;4.396;2022-10-16T07:38:50;14.80;99.90
23160;DHT22;11748;50.844;4.396;2022-10-16T07:41:18;14.90;99.90
23160;DHT22;11748;50.844;4.396;2022-10-16T07:43:50;15.00;99.90
23160;DHT22;11748;50.844;4.396;2022-10-16T07:46:17;15.10;99.90
23160;DHT22;11748;50.844;4.396;2022-10-16T07:48:43;15.20;99.90
23160;DHT22;11748;50.844;4.396;2022-10-16T07:51:13;15.20;99.90
23160;DHT22;11748;50.844;4.396;2022-10-16T07:53:39;15.20;99.90
23160;DHT22;11748;50.844;4.396;2022-10-16T07:56:06;15.30;99.90
23160;DHT22;11748;50.844;4.396;2022-10-16T07:58:33;15.20;99.90
23160;DHT22;11748;50.844;4.396;2022-10-16T08:01:04;15.20;99.90
23160;DHT22;11748;50.844;4.396;2022-10-16T08:03:30;15.30;99.90
23160;DHT22;11748;50.844;4.396;2022-10-16T08:05:57;15.30;99.90
23160;DHT22;11748;50.844;4.396;2022-10-16T08:08:23;15.30;99.90
23160;DHT22;11748;50.844;4.396;2022-10-16T08:10:49;15.40;99.90
23160;DHT22;11748;50.844;4.396;2022-10-16T08:13:15;15.40;99.90
23160;DHT22;11748;50.844;4.396;2022-10-16T08:15:42;15.40;99.90
23160;DHT22;11748;50.844;4.396;2022-10-16T08:18:09;15.40;99.90
23160;DHT22;11748;50.844;4.396;2022-10-16T08:20:35;15.60;99.90
23160;DHT22;11748;50.844;4.396;2022-10-16T08:23:01;15.80;99.90
23160;DHT22;11748;50.844;4.396;2022-10-16T08:25:27;15.80;99.90
23160;DHT22;11748;50.844;4.396;2022-10-16T08:27:53;15.70;99.90
23160;DHT22;11748;50.844;4.396;2022-10-16T08:30:21;15.70;99.90
23160;DHT22;11748;50.844;4.396;2022-10-16T08:32:47;15.80;99.90
23160;DHT22;11748;50.844;4.396;2022-10-16T08:35:13;15.70;99.90
23160;DHT22;11748;50.844;4.396;2022-10-16T08:37:40;15.90;99.90
23160;DHT22;11748;50.844;4.396;2022-10-16T08:40:30;16.00;99.90
23160;DHT22;11748;50.844;4.396;2022-10-16T08:48:45;16.00;99.90
23160;DHT22;11748;50.844;4.396;2022-10-16T08:51:32;16.00;99.90
23160;DHT22;11748;50.844;4.396;2022-10-16T08:54:03;16.00;99.90
23160;DHT22;11748;50.844;4.396;2022-10-16T08:56:29;16.10;99.90
23160;DHT22;11748;50.844;4.396;2022-10-16T08:58:54;16.10;99.90
23160;DHT22;11748;50.844;4.396;2022-10-16T09:01:35;16.30;99.90
23160;DHT22;11748;50.844;4.396;2022-10-16T09:07:14;16.60;99.90
23160;DHT22;11748;50.844;4.396;2022-10-16T09:12:50;16.60;99.90
23160;DHT22;11748;50.844;4.396;2022-10-16T09:18:18;17.10;99.90
23160;DHT22;11748;50.844;4.396;2022-10-16T09:20:56;17.00;99.90
23160;DHT22;11748;50.844;4.396;2022-10-16T09:23:26;16.90;99.90
23160;DHT22;11748;50.844;4.396;2022-10-16T09:25:53;17.10;99.90
23160;DHT22;11748;50.844;4.396;2022-10-16T09:28:19;17.30;99.90
23160;DHT22;11748;50.844;4.396;2022-10-16T09:30:46;17.10;99.90
23160;DHT22;11748;50.844;4.396;2022-10-16T09:33:15;17.10;99.90
23160;DHT22;11748;50.844;4.396;2022-10-16T09:35:46;16.90;99.90
23160;DHT22;11748;50.844;4.396;2022-10-16T09:38:31;17.00;99.90
23160;DHT22;11748;50.844;4.396;2022-10-16T09:40:59;17.10;99.90
23160;DHT22;11748;50.844;4.396;2022-10-16T09:43:39;17.30;99.90
23160;DHT22;11748;50.844;4.396;2022-10-16T09:46:21;17.30;99.90
23160;DHT22;11748;50.844;4.396;2022-10-16T09:48:50;17.60;99.90
23160;DHT22;11748;50.844;4.396;2022-10-16T09:51:20;17.90;99.90
23160;DHT22;11748;50.844;4.396;2022-10-16T09:53:47;18.10;99.90
23160;DHT22;11748;50.844;4.396;2022-10-16T09:56:23;18.20;99.90
23160;DHT22;11748;50.844;4.396;2022-10-16T09:58:54;18.20;99.90
23160;DHT22;11748;50.844;4.396;2022-10-16T10:01:21;18.30;99.90
23160;DHT22;11748;50.844;4.396;2022-10-16T10:03:47;18.20;99.90
23160;DHT22;11748;50.844;4.396;2022-10-16T10:06:28;18.10;99.90
23160;DHT22;11748;50.844;4.396;2022-10-16T10:08:59;18.00;99.90
23160;DHT22;11748;50.844;4.396;2022-10-16T10:17:00;18.00;99.90
23160;DHT22;11748;50.844;4.396;2022-10-16T10:19:27;18.20;99.90
23160;DHT22;11748;50.844;4.396;2022-10-16T10:21:53;18.40;99.90
23160;DHT22;11748;50.844;4.396;2022-10-16T10:24:19;18.60;99.90
23160;DHT22;11748;50.844;4.396;2022-10-16T10:32:27;18.40;99.90
23160;DHT22;11748;50.844;4.396;2022-10-16T10:35:29;18.60;99.90
23160;DHT22;11748;50.844;4.396;2022-10-16T10:38:16;18.70;99.90
23160;DHT22;11748;50.844;4.396;2022-10-16T10:44:27;18.20;99.90
23160;DHT22;11748;50.844;4.396;2022-10-16T10:47:20;18.50;99.90
23160;DHT22;11748;50.844;4.396;2022-10-16T10:53:02;19.00;99.90
23160;DHT22;11748;50.844;4.396;2022-10-16T10:55:43;18.60;99.90
23160;DHT22;11748;50.844;4.396;2022-10-16T11:01:05;19.20;99.90
23160;DHT22;11748;50.844;4.396;2022-10-16T11:04:07;19.30;99.90
23160;DHT22;11748;50.844;4.396;2022-10-16T11:06:45;19.10;99.90
23160;DHT22;11748;50.844;4.396;2022-10-16T11:09:21;18.90;99.90
23160;DHT22;11748;50.844;4.396;2022-10-16T11:12:14;18.90;99.90
23160;DHT22;11748;50.844;4.396;2022-10-16T11:15:07;19.00;99.90
23160;DHT22;11748;50.844;4.396;2022-10-16T11:20:33;19.20;99.90
23160;DHT22;11748;50.844;4.396;2022-10-16T11:23:15;19.30;99.90
23160;DHT22;11748;50.844;4.396;2022-10-16T11:25:43;19.40;99.90
23160;DHT22;11748;50.844;4.396;2022-10-16T11:28:19;19.60;99.90
23160;DHT22;11748;50.844;4.396;2022-10-16T11:30:54;20.00;99.90
23160;DHT22;11748;50.844;4.396;2022-10-16T11:33:36;20.40;99.90
23160;DHT22;11748;50.844;4.396;2022-10-16T11:39:29;20.20;99.90
23160;DHT22;11748;50.844;4.396;2022-10-16T11:42:01;20.10;99.90
23160;DHT22;11748;50.844;4.396;2022-10-16T11:50:54;19.60;99.90
23160;DHT22;11748;50.844;4.396;2022-10-16T11:55:54;19.20;99.90
23160;DHT22;11748;50.844;4.396;2022-10-16T12:03:51;19.20;99.90
23160;DHT22;11748;50.844;4.396;2022-10-16T12:06:23;19.40;99.90
23160;DHT22;11748;50.844;4.396;2022-10-16T12:08:52;19.60;99.90
23160;DHT22;11748;50.844;4.396;2022-10-16T12:16:50;19.90;99.90
23160;DHT22;11748;50.844;4.396;2022-10-16T12:19:17;20.30;99.90
23160;DHT22;11748;50.844;4.396;2022-10-16T12:21:44;20.50;99.90
23160;DHT22;11748;50.844;4.396;2022-10-16T12:26:54;20.20;99.90
23160;DHT22;11748;50.844;4.396;2022-10-16T12:31:59;20.10;99.90
23160;DHT22;11748;50.844;4.396;2022-10-16T12:34:41;20.30;99.90
23160;DHT22;11748;50.844;4.396;2022-10-16T12:39:36;20.30;99.90
23160;DHT22;11748;50.844;4.396;2022-10-16T12:42:19;20.30;99.90
23160;DHT22;11748;50.844;4.396;2022-10-16T12:44:45;20.60;99.90
23160;DHT22;11748;50.844;4.396;2022-10-16T12:47:37;20.90;99.90
23160;DHT22;11748;50.844;4.396;2022-10-16T12:50:03;20.40;99.90
23160;DHT22;11748;50.844;4.396;2022-10-16T12:52:50;19.90;99.90
23160;DHT22;11748;50.844;4.396;2022-10-16T12:55:21;20.10;99.90
23160;DHT22;11748;50.844;4.396;2022-10-16T12:58:15;20.30;99.90
23160;DHT22;11748;50.844;4.396;2022-10-16T13:00:57;20.50;99.90
23160;DHT22;11748;50.844;4.396;2022-10-16T13:30:10;21.20;99.90
23160;DHT22;11748;50.844;4.396;2022-10-16T13:32:40;21.30;99.90
23160;DHT22;11748;50.844;4.396;2022-10-16T13:35:22;21.30;99.90
23160;DHT22;11748;50.844;4.396;2022-10-16T13:37:49;21.20;99.90
23160;DHT22;11748;50.844;4.396;2022-10-16T13:40:22;21.40;99.90
23160;DHT22;11748;50.844;4.396;2022-10-16T13:42:48;21.40;99.90
23160;DHT22;11748;50.844;4.396;2022-10-16T13:45:22;21.50;99.90
23160;DHT22;11748;50.844;4.396;2022-10-16T13:47:49;21.40;99.90
23160;DHT22;11748;50.844;4.396;2022-10-16T13:50:17;21.20;99.90
23160;DHT22;11748;50.844;4.396;2022-10-16T13:52:44;21.20;99.90
23160;DHT22;11748;50.844;4.396;2022-10-16T13:55:17;21.20;99.90
23160;DHT22;11748;50.844;4.396;2022-10-16T13:57:44;21.20;99.90
23160;DHT22;11748;50.844;4.396;2022-10-16T14:00:24;21.20;99.90
23160;DHT22;11748;50.844;4.396;2022-10-16T14:02:58;21.00;99.90
23160;DHT22;11748;50.844;4.396;2022-10-16T14:05:27;21.10;99.90
23160;DHT22;11748;50.844;4.396;2022-10-16T14:07:53;21.10;99.90
23160;DHT22;11748;50.844;4.396;2022-10-16T14:10:29;21.10;99.90
23160;DHT22;11748;50.844;4.396;2022-10-16T14:13:03;21.10;99.90
23160;DHT22;11748;50.844;4.396;2022-10-16T14:15:31;21.00;99.90
23160;DHT22;11748;50.844;4.396;2022-10-16T14:17:58;21.00;99.90
23160;DHT22;11748;50.844;4.396;2022-10-16T14:20:27;21.00;99.90
23160;DHT22;11748;50.844;4.396;2022-10-16T14:25:28;21.00;99.90
23160;DHT22;11748;50.844;4.396;2022-10-16T14:30:36;21.10;99.90
23160;DHT22;11748;50.844;4.396;2022-10-16T14:33:19;21.10;99.90
23160;DHT22;11748;50.844;4.396;2022-10-16T14:35:45;21.00;99.90
23160;DHT22;11748;50.844;4.396;2022-10-16T14:38:19;21.00;99.90
23160;DHT22;11748;50.844;4.396;2022-10-16T14:40:50;21.00;99.90
23160;DHT22;11748;50.844;4.396;2022-10-16T14:43:25;20.70;99.90
23160;DHT22;11748;50.844;4.396;2022-10-16T14:45:54;20.70;99.90
23160;DHT22;11748;50.844;4.396;2022-10-16T14:48:23;20.70;99.90
23160;DHT22;11748;50.844;4.396;2022-10-16T14:50:49;20.80;99.90
23160;DHT22;11748;50.844;4.396;2022-10-16T14:53:15;20.70;99.90
23160;DHT22;11748;50.844;4.396;2022-10-16T14:55:41;20.80;99.90
23160;DHT22;11748;50.844;4.396;2022-10-16T14:58:21;20.70;99.90
23160;DHT22;11748;50.844;4.396;2022-10-16T15:00:48;20.70;99.90
23160;DHT22;11748;50.844;4.396;2022-10-16T15:03:14;20.70;99.90
23160;DHT22;11748;50.844;4.396;2022-10-16T15:05:40;20.70;99.90
23160;DHT22;11748;50.844;4.396;2022-10-16T15:08:06;20.70;99.90
23160;DHT22;11748;50.844;4.396;2022-10-16T15:10:38;20.70;99.90
23160;DHT22;11748;50.844;4.396;2022-10-16T15:13:04;20.60;99.90
23160;DHT22;11748;50.844;4.396;2022-10-16T15:15:36;20.70;99.90
23160;DHT22;11748;50.844;4.396;2022-10-16T15:18:03;20.60;99.90
23160;DHT22;11748;50.844;4.396;2022-10-16T15:20:32;20.60;99.90
23160;DHT22;11748;50.844;4.396;2022-10-16T15:23:04;20.60;99.90
23160;DHT22;11748;50.844;4.396;2022-10-16T15:25:39;20.50;99.90
23160;DHT22;11748;50.844;4.396;2022-10-16T15:28:07;20.40;99.90
23160;DHT22;11748;50.844;4.396;2022-10-16T15:30:34;20.50;99.90
23160;DHT22;11748;50.844;4.396;2022-10-16T15:33:00;20.40;99.90
23160;DHT22;11748;50.844;4.396;2022-10-16T15:35:26;20.40;99.90
23160;DHT22;11748;50.844;4.396;2022-10-16T15:37:52;20.30;99.90
23160;DHT22;11748;50.844;4.396;2022-10-16T15:40:19;20.30;99.90
23160;DHT22;11748;50.844;4.396;2022-10-16T15:42:46;20.20;99.90
23160;DHT22;11748;50.844;4.396;2022-10-16T15:45:12;20.10;99.90
23160;DHT22;11748;50.844;4.396;2022-10-16T15:47:40;20.10;99.90
23160;DHT22;11748;50.844;4.396;2022-10-16T15:50:06;20.10;99.90
23160;DHT22;11748;50.844;4.396;2022-10-16T15:52:32;20.00;99.90
23160;DHT22;11748;50.844;4.396;2022-10-16T15:54:58;20.10;99.90
23160;DHT22;11748;50.844;4.396;2022-10-16T15:57:24;20.00;99.90
23160;DHT22;11748;50.844;4.396;2022-10-16T15:59:50;20.00;99.90
23160;DHT22;11748;50.844;4.396;2022-10-16T16:02:23;20.00;99.90
23160;DHT22;11748;50.844;4.396;2022-10-16T16:04:48;19.90;99.90
23160;DHT22;11748;50.844;4.396;2022-10-16T16:07:14;19.90;99.90
23160;DHT22;11748;50.844;4.396;2022-10-16T16:09:40;19.90;99.90
23160;DHT22;11748;50.844;4.396;2022-10-16T16:12:06;19.90;99.90
23160;DHT22;11748;50.844;4.396;2022-10-16T16:14:31;19.80;99.90
23160;DHT22;11748;50.844;4.396;2022-10-16T16:16:59;19.80;99.90
23160;DHT22;11748;50.844;4.396;2022-10-16T16:19:24;19.70;99.90
23160;DHT22;11748;50.844;4.396;2022-10-16T16:21:50;19.70;99.90
23160;DHT22;11748;50.844;4.396;2022-10-16T16:24:16;19.70;99.90
23160;DHT22;11748;50.844;4.396;2022-10-16T16:26:42;19.70;99.90
23160;DHT22;11748;50.844;4.396;2022-10-16T16:29:13;19.60;99.90
23160;DHT22;11748;50.844;4.396;2022-10-16T16:31:40;19.50;99.90
23160;DHT22;11748;50.844;4.396;2022-10-16T16:34:06;19.50;99.90
23160;DHT22;11748;50.844;4.396;2022-10-16T16:36:32;19.50;99.90
23160;DHT22;11748;50.844;4.396;2022-10-16T16:38:59;19.50;99.90
23160;DHT22;11748;50.844;4.396;2022-10-16T16:41:27;19.50;99.90
23160;DHT22;11748;50.844;4.396;2022-10-16T16:43:54;19.50;99.90
23160;DHT22;11748;50.844;4.396;2022-10-16T16:46:21;19.40;99.90
23160;DHT22;11748;50.844;4.396;2022-10-16T16:48:47;19.40;99.90
23160;DHT22;11748;50.844;4.396;2022-10-16T16:51:16;19.30;99.90
23160;DHT22;11748;50.844;4.396;2022-10-16T16:53:50;19.30;99.90
23160;DHT22;11748;50.844;4.396;2022-10-16T16:56:16;19.20;99.90
23160;DHT22;11748;50.844;4.396;2022-10-16T16:58:46;19.10;99.90
23160;DHT22;11748;50.844;4.396;2022-10-16T17:01:12;19.10;99.90
23160;DHT22;11748;50.844;4.396;2022-10-16T17:03:38;18.90;99.90
23160;DHT22;11748;50.844;4.396;2022-10-16T17:06:06;19.00;99.90
23160;DHT22;11748;50.844;4.396;2022-10-16T17:08:34;19.10;99.90
23160;DHT22;11748;50.844;4.396;2022-10-16T17:11:00;19.10;99.90
23160;DHT22;11748;50.844;4.396;2022-10-16T17:13:31;19.10;99.90
23160;DHT22;11748;50.844;4.396;2022-10-16T17:16:00;19.10;99.90
23160;DHT22;11748;50.844;4.396;2022-10-16T17:18:26;19.10;99.90
23160;DHT22;11748;50.844;4.396;2022-10-16T17:20:52;19.00;99.90
23160;DHT22;11748;50.844;4.396;2022-10-16T17:23:19;18.90;99.90
23160;DHT22;11748;50.844;4.396;2022-10-16T17:25:45;18.80;99.90
23160;DHT22;11748;50.844;4.396;2022-10-16T17:28:12;18.80;99.90
23160;DHT22;11748;50.844;4.396;2022-10-16T17:30:40;18.70;99.90
23160;DHT22;11748;50.844;4.396;2022-10-16T17:33:06;18.70;99.90
23160;DHT22;11748;50.844;4.396;2022-10-16T17:35:37;18.70;99.90
23160;DHT22;11748;50.844;4.396;2022-10-16T17:38:03;18.70;99.90
23160;DHT22;11748;50.844;4.396;2022-10-16T17:40:28;18.60;99.90
23160;DHT22;11748;50.844;4.396;2022-10-16T17:42:54;18.50;99.90
23160;DHT22;11748;50.844;4.396;2022-10-16T17:45:20;18.50;99.90
23160;DHT22;11748;50.844;4.396;2022-10-16T17:47:46;18.40;99.90
23160;DHT22;11748;50.844;4.396;2022-10-16T17:50:12;18.40;99.90
23160;DHT22;11748;50.844;4.396;2022-10-16T17:52:38;18.30;99.90